KAXA

Algona Municipal Airport

Algona, Iowa, USA
METAR KAXA 251855Z AUTO 34011KT 10SM BKN014 OVC018 12/10 A2998 RMK AO2 PWINO
Observed Flight Rules
Sep-25 @ 18:55 UTC (10 minutes ago) Marginal Visual Flight Rules
Wind Visibility Clouds
340° at 11 knots 10 miles
  • Broken at 1,400' AGL
  • Overcast at 1,800' AGL
Temperatures Readings
Current 12°C / 54°F
Dewpoint 10°C / 50°F
Humidity 88%
Altimeter 29.98" Hg
Pressure 1015 hPa
Elevation 372
METAR KAXA 251855Z AUTO 34011KT 10SM BKN014 OVC018 12/10 A2998 RMK AO2 PWINO
Observed Flight Rules
Sep-25 @ 18:55 UTC
(10 minutes ago)
MVFR
Wind Visibility
340° at 11 knots 10 miles
Clouds
  • Broken at 1,400' AGL
  • Overcast at 1,800' AGL
Temperature Dewpoint
12°C / 54°F 10°C / 50°F
Humidity Altimeter Pressure
88% 29.98" Hg 1015 hPa